createdAt,value
2023-01-08T00:02:01.135Z,100801.81
2023-01-08T00:04:48.777Z,100827.88
2023-01-08T00:07:36.430Z,100787.41
2023-01-08T00:10:24.156Z,100821.38
2023-01-08T00:13:11.855Z,100823.81
2023-01-08T00:16:07.036Z,100820.00
2023-01-08T00:18:54.764Z,100827.88
2023-01-08T00:21:42.534Z,100837.91
2023-01-08T00:24:30.240Z,100828.94
2023-01-08T00:27:20.206Z,100831.09
2023-01-08T00:30:08.429Z,100834.91
2023-01-08T00:32:56.084Z,100843.06
2023-01-08T00:35:43.842Z,100837.88
2023-01-08T00:38:31.484Z,100828.63
2023-01-08T00:41:19.228Z,100818.03
2023-01-08T00:44:07.170Z,100820.47
2023-01-08T00:46:54.799Z,100802.03
2023-01-08T00:49:42.600Z,100796.81
2023-01-08T00:52:30.350Z,100825.09
2023-01-08T00:55:18.471Z,100822.06
2023-01-08T00:58:06.176Z,100825.63
2023-01-08T01:00:53.953Z,100834.63
2023-01-08T01:03:42.715Z,100830.81
2023-01-08T01:06:33.669Z,100835.72
2023-01-08T01:09:21.436Z,100833.53
2023-01-08T01:12:09.065Z,100819.16
2023-01-08T01:14:56.722Z,100843.28
2023-01-08T01:17:46.413Z,100836.25
2023-01-08T01:20:34.094Z,100820.75
2023-01-08T01:23:21.866Z,100830.31
2023-01-08T01:26:20.709Z,100837.94
2023-01-08T01:29:08.475Z,100844.19
2023-01-08T01:31:56.109Z,100840.94
2023-01-08T01:34:43.938Z,100847.44
2023-01-08T01:37:34.723Z,100849.88
2023-01-08T01:40:22.525Z,100795.78
2023-01-08T01:43:14.921Z,100807.19
2023-01-08T01:46:04.550Z,100842.75
2023-01-08T01:48:56.133Z,100832.09
2023-01-08T01:51:51.681Z,100848.19
2023-01-08T01:54:39.830Z,100839.44
2023-01-08T01:57:29.393Z,100856.25
2023-01-08T02:00:19.353Z,100837.75
2023-01-08T02:03:08.688Z,100858.38
2023-01-08T02:06:05.511Z,100860.78
2023-01-08T02:08:56.061Z,100857.22
2023-01-08T02:12:14.000Z,100842.81
2023-01-08T02:15:16.549Z,100854.47
2023-01-08T02:18:10.134Z,100842.75
2023-01-08T02:21:03.835Z,100842.00
2023-01-08T02:24:17.772Z,100843.91
2023-01-08T02:27:08.635Z,100832.22
2023-01-08T02:29:57.763Z,100804.44
2023-01-08T02:32:45.575Z,100827.03
2023-01-08T02:35:45.056Z,100835.16
2023-01-08T02:38:33.148Z,100835.69
2023-01-08T02:41:28.876Z,100840.53
2023-01-08T02:44:33.117Z,100831.84
2023-01-08T02:47:26.764Z,100843.78
2023-01-08T02:50:26.266Z,100783.66
2023-01-08T02:53:29.795Z,100805.69
2023-01-08T02:56:22.580Z,100832.66
2023-01-08T02:59:13.315Z,100833.44
2023-01-08T03:02:02.975Z,100841.81
2023-01-08T03:04:58.326Z,100837.72
2023-01-08T03:07:46.057Z,100788.75
2023-01-08T03:10:37.666Z,100844.59
2023-01-08T03:13:32.967Z,100806.69
2023-01-08T03:16:42.005Z,100842.31
2023-01-08T03:19:40.557Z,100846.59
2023-01-08T03:22:32.317Z,100844.94
2023-01-08T03:25:22.677Z,100856.06
2023-01-08T03:28:24.682Z,100850.13
2023-01-08T03:31:16.608Z,100850.44
2023-01-08T03:34:05.700Z,100852.88
2023-01-08T03:36:57.821Z,100835.69
2023-01-08T03:39:54.483Z,100833.44
2023-01-08T03:42:42.361Z,100847.91
2023-01-08T03:45:32.164Z,100838.63
2023-01-08T03:48:21.800Z,100854.84
2023-01-08T03:51:10.774Z,100827.94
2023-01-08T03:53:59.958Z,100846.91
2023-01-08T03:56:47.720Z,100848.88
2023-01-08T03:59:35.431Z,100831.47
2023-01-08T04:02:23.272Z,100816.16
2023-01-08T04:05:11.439Z,100852.22
2023-01-08T04:07:59.334Z,100836.13
2023-01-08T04:10:47.080Z,100811.38
2023-01-08T04:13:34.955Z,100836.13
2023-01-08T04:16:23.568Z,100846.13
2023-01-08T04:19:15.235Z,100827.63
2023-01-08T04:22:02.906Z,100857.50
2023-01-08T04:24:50.657Z,100846.38
2023-01-08T04:27:38.389Z,100857.44
2023-01-08T04:30:26.163Z,100854.50
2023-01-08T04:33:13.971Z,100848.72
2023-01-08T04:36:01.947Z,100856.53
2023-01-08T04:38:49.689Z,100859.03
2023-01-08T04:41:37.401Z,100862.19
2023-01-08T04:44:25.189Z,100856.16
2023-01-08T04:47:12.887Z,100835.78
2023-01-08T04:50:00.551Z,100849.94
2023-01-08T04:52:48.254Z,100845.06
2023-01-08T04:55:37.087Z,100854.84
2023-01-08T04:58:25.541Z,100863.31
2023-01-08T05:01:19.186Z,100866.25
2023-01-08T05:04:07.041Z,100816.53
2023-01-08T05:06:54.687Z,100871.47
2023-01-08T05:09:43.384Z,100865.91
2023-01-08T05:12:31.040Z,100869.09
2023-01-08T05:15:18.776Z,100859.59
2023-01-08T05:18:06.955Z,100847.53
2023-01-08T05:20:54.712Z,100870.72
2023-01-08T05:23:49.398Z,100832.56
2023-01-08T05:26:37.046Z,100869.03
2023-01-08T05:29:24.778Z,100871.84
2023-01-08T05:32:17.636Z,100874.63
2023-01-08T05:35:06.119Z,100835.84
2023-01-08T05:37:53.838Z,100880.72
2023-01-08T05:40:41.549Z,100853.81
2023-01-08T05:43:29.562Z,100852.59
2023-01-08T05:46:17.407Z,100886.38
2023-01-08T05:49:05.106Z,100896.06
2023-01-08T05:51:52.838Z,100888.38
2023-01-08T05:54:40.465Z,100866.38
2023-01-08T05:57:28.263Z,100885.13
2023-01-08T06:00:16.504Z,100859.59
2023-01-08T06:03:04.757Z,100905.09
2023-01-08T06:05:52.524Z,100885.78
2023-01-08T06:08:40.273Z,100906.22
2023-01-08T06:11:27.870Z,100867.34
2023-01-08T06:14:16.323Z,100907.66
2023-01-08T06:17:04.083Z,100910.13
2023-01-08T06:19:51.790Z,100867.78
2023-01-08T06:22:39.413Z,100899.75
2023-01-08T06:25:27.196Z,100910.88
2023-01-08T06:28:21.213Z,100906.28
2023-01-08T06:31:09.467Z,100887.06
2023-01-08T06:34:00.710Z,100918.13
2023-01-08T06:36:53.243Z,100928.81
2023-01-08T06:39:43.090Z,100846.25
2023-01-08T06:42:30.751Z,100923.94
2023-01-08T06:45:18.421Z,100893.94
2023-01-08T06:48:07.509Z,100940.16
2023-01-08T06:50:55.205Z,100938.91
2023-01-08T06:53:44.924Z,100913.91
2023-01-08T06:56:37.740Z,100935.59
2023-01-08T06:59:35.574Z,100941.78
2023-01-08T07:02:25.506Z,100948.34
2023-01-08T07:05:13.414Z,100951.94
2023-01-08T07:08:01.130Z,100912.28
2023-01-08T07:10:49.062Z,100952.81
2023-01-08T07:13:37.689Z,100953.91
2023-01-08T07:16:25.534Z,100954.22
2023-01-08T07:19:13.887Z,100964.34
2023-01-08T07:22:01.948Z,100957.78
2023-01-08T07:25:02.814Z,100959.69
2023-01-08T07:27:52.255Z,100914.31
2023-01-08T07:30:40.841Z,100940.66
2023-01-08T07:33:28.520Z,100923.63
2023-01-08T07:36:16.285Z,100958.97
2023-01-08T07:39:04.211Z,100951.66
2023-01-08T07:41:52.078Z,100923.59
2023-01-08T07:44:39.851Z,100947.59
2023-01-08T07:47:27.590Z,100857.81
2023-01-08T07:50:15.428Z,100968.22
2023-01-08T07:53:09.001Z,100964.72
2023-01-08T07:56:07.308Z,100981.31
2023-01-08T07:58:55.162Z,100964.88
2023-01-08T08:01:42.991Z,100959.00
2023-01-08T08:04:31.937Z,100975.63
2023-01-08T08:07:30.181Z,100937.63
2023-01-08T08:10:30.797Z,100932.19
2023-01-08T08:13:22.500Z,100886.19
2023-01-08T08:16:14.306Z,100878.84
2023-01-08T08:19:09.513Z,100862.28
2023-01-08T08:21:58.148Z,100886.19
2023-01-08T08:24:45.924Z,100963.75
2023-01-08T08:27:33.595Z,100935.75
2023-01-08T08:30:21.624Z,100960.81
2023-01-08T08:33:10.216Z,100980.94
2023-01-08T08:35:58.039Z,100983.06
2023-01-08T08:38:45.586Z,100978.72
2023-01-08T08:41:33.293Z,100953.47
2023-01-08T08:44:21.117Z,100990.19
2023-01-08T08:47:11.623Z,100989.91
2023-01-08T08:49:59.570Z,100967.63
2023-01-08T08:52:49.149Z,100991.56
2023-01-08T08:55:36.904Z,100979.84
2023-01-08T08:58:24.977Z,100998.91
2023-01-08T09:01:12.658Z,100992.94
2023-01-08T09:04:00.391Z,100965.97
2023-01-08T09:06:48.125Z,100992.09
2023-01-08T09:09:35.720Z,100993.19
2023-01-08T09:12:23.361Z,100966.28
2023-01-08T09:15:11.812Z,100982.84
2023-01-08T09:17:59.688Z,100993.72
2023-01-08T09:20:47.484Z,100977.41
2023-01-08T09:23:35.740Z,100998.63
2023-01-08T09:26:23.604Z,100978.75
2023-01-08T09:29:11.400Z,100980.38
2023-01-08T09:32:00.812Z,100968.72
2023-01-08T09:34:48.589Z,100975.44
2023-01-08T09:37:36.392Z,100931.66
2023-01-08T09:40:32.639Z,100949.28
2023-01-08T09:43:22.712Z,100957.94
2023-01-08T09:46:12.314Z,100958.44
2023-01-08T09:49:04.745Z,100924.13
2023-01-08T09:51:53.026Z,100924.41
2023-01-08T09:54:41.647Z,100957.94
2023-01-08T09:57:29.873Z,100951.63
2023-01-08T10:00:22.770Z,100942.13
2023-01-08T10:03:12.649Z,100936.50
2023-01-08T10:06:00.320Z,100940.09
2023-01-08T10:08:48.095Z,100922.72
2023-01-08T10:11:47.947Z,100930.59
2023-01-08T10:14:38.674Z,100933.94
2023-01-08T10:17:31.876Z,100915.97
2023-01-08T10:20:22.327Z,100926.34
2023-01-08T10:23:14.363Z,100920.16
2023-01-08T10:26:03.298Z,100908.91
2023-01-08T10:28:50.951Z,100877.72
2023-01-08T10:31:53.443Z,100899.25
2023-01-08T10:34:53.244Z,100901.41
2023-01-08T10:37:43.031Z,100908.06
2023-01-08T10:40:38.740Z,100887.03
2023-01-08T10:43:44.213Z,100900.09
2023-01-08T10:46:37.496Z,100857.50
2023-01-08T10:49:42.250Z,100892.44
2023-01-08T10:52:36.596Z,100876.19
2023-01-08T10:55:31.849Z,100888.13
2023-01-08T10:58:20.667Z,100857.44
2023-01-08T11:01:25.883Z,100896.25
2023-01-08T11:04:36.252Z,100892.97
2023-01-08T11:07:28.282Z,100850.03
2023-01-08T11:10:26.884Z,100882.50
2023-01-08T11:13:19.976Z,100874.81
2023-01-08T11:16:12.979Z,100891.53
2023-01-08T11:19:00.924Z,100872.94
2023-01-08T11:21:59.143Z,100887.34
2023-01-08T11:24:47.926Z,100882.88
2023-01-08T11:27:38.503Z,100880.56
2023-01-08T11:30:28.633Z,100890.09
2023-01-08T11:33:24.358Z,100881.31
2023-01-08T11:36:29.956Z,100858.78
2023-01-08T11:39:19.597Z,100881.84
2023-01-08T11:42:35.312Z,100879.47
2023-01-08T11:45:40.358Z,100868.47
2023-01-08T11:48:50.048Z,100858.28
2023-01-08T11:51:53.112Z,100867.47
2023-01-08T11:55:11.363Z,100863.56
2023-01-08T11:58:11.218Z,100837.97
2023-01-08T12:01:50.297Z,100852.16
2023-01-08T12:04:48.742Z,100864.22
2023-01-08T12:07:51.912Z,100852.19
2023-01-08T12:11:17.951Z,100842.75
2023-01-08T12:14:21.854Z,100814.91
2023-01-08T12:17:46.299Z,100842.28
2023-01-08T12:20:44.941Z,100822.59
2023-01-08T12:23:55.951Z,100842.06
2023-01-08T12:27:13.901Z,100833.22
2023-01-08T12:30:26.170Z,100834.47
2023-01-08T12:33:24.195Z,100832.34
2023-01-08T12:36:27.344Z,100821.78
2023-01-08T12:39:47.403Z,100828.34
2023-01-08T12:43:01.176Z,100830.78
2023-01-08T12:46:29.035Z,100708.56
2023-01-08T12:54:39.659Z,100827.19
2023-01-08T12:58:17.871Z,100772.06
2023-01-08T13:01:33.141Z,100770.84
2023-01-08T13:04:58.038Z,100814.41
2023-01-08T13:08:35.396Z,100812.28
2023-01-08T13:11:43.535Z,100739.38
2023-01-08T13:14:43.268Z,100790.97
2023-01-08T13:17:36.356Z,100743.78
2023-01-08T13:20:31.902Z,100769.06
2023-01-08T13:28:04.088Z,100742.53
2023-01-08T13:32:09.558Z,100806.13
2023-01-08T13:35:21.568Z,100821.84
2023-01-08T13:38:45.901Z,100812.16
2023-01-08T13:54:06.857Z,100797.81
2023-01-08T13:57:54.664Z,100793.41
2023-01-08T14:01:29.162Z,100797.22
2023-01-08T14:13:10.522Z,100677.72
2023-01-08T14:17:30.139Z,100785.84
2023-01-08T14:21:20.043Z,100794.09
2023-01-08T14:25:13.691Z,100756.81
2023-01-08T14:32:21.246Z,100781.63
2023-01-08T14:35:18.251Z,100759.13
2023-01-08T14:38:06.044Z,100748.47
2023-01-08T14:41:13.040Z,100794.91
2023-01-08T14:44:09.409Z,100782.50
2023-01-08T14:46:58.285Z,100748.66
2023-01-08T14:49:52.303Z,100789.28
2023-01-08T14:52:41.267Z,100790.53
2023-01-08T14:55:37.709Z,100802.16
2023-01-08T14:58:37.770Z,100771.19
2023-01-08T15:01:29.323Z,100749.56
2023-01-08T15:04:19.981Z,100792.22
2023-01-08T15:07:30.159Z,100773.31
2023-01-08T15:10:44.544Z,100773.63
2023-01-08T15:13:36.504Z,100776.91
2023-01-08T15:16:43.166Z,100790.75
2023-01-08T15:19:37.446Z,100786.94
2023-01-08T15:22:27.988Z,100774.09
2023-01-08T15:25:24.339Z,100760.50
2023-01-08T15:28:16.029Z,100786.09
2023-01-08T15:31:08.091Z,100772.19
2023-01-08T15:33:57.436Z,100769.47
2023-01-08T15:36:47.679Z,100779.81
2023-01-08T15:39:35.650Z,100782.78
2023-01-08T15:42:47.257Z,100773.00
2023-01-08T15:45:35.364Z,100769.41
2023-01-08T15:48:23.394Z,100761.22
2023-01-08T15:51:11.767Z,100771.53
2023-01-08T15:54:00.539Z,100723.31
2023-01-08T15:56:48.664Z,100768.13
2023-01-08T15:59:38.125Z,100758.34
2023-01-08T16:02:26.946Z,100733.97
2023-01-08T16:05:22.311Z,100658.34
2023-01-08T16:08:13.188Z,100761.88
2023-01-08T16:11:02.752Z,100766.44
2023-01-08T16:13:50.647Z,100765.06
2023-01-08T16:16:41.193Z,100769.19
2023-01-08T16:19:31.003Z,100768.59
2023-01-08T16:22:18.748Z,100688.59
2023-01-08T16:25:07.545Z,100732.69
2023-01-08T16:27:55.440Z,100756.97
2023-01-08T16:30:44.514Z,100752.91
2023-01-08T16:33:35.612Z,100763.25
2023-01-08T16:36:24.054Z,100765.94
2023-01-08T16:39:12.044Z,100754.34
2023-01-08T16:41:59.847Z,100768.19
2023-01-08T16:44:48.992Z,100752.72
2023-01-08T16:47:39.994Z,100762.22
2023-01-08T16:50:27.765Z,100771.72
2023-01-08T16:53:17.872Z,100755.91
2023-01-08T16:56:06.149Z,100772.25
2023-01-08T16:58:53.989Z,100769.75
2023-01-08T17:01:45.544Z,100767.03
2023-01-08T17:04:39.413Z,100768.66
2023-01-08T17:07:27.268Z,100754.38
2023-01-08T17:10:20.650Z,100718.59
2023-01-08T17:13:08.913Z,100765.75
2023-01-08T17:15:58.455Z,100735.09
2023-01-08T17:18:49.191Z,100730.19
2023-01-08T17:21:38.132Z,100763.78
2023-01-08T17:24:26.151Z,100700.91
2023-01-08T17:27:13.800Z,100772.81
2023-01-08T17:30:01.512Z,100761.97
2023-01-08T17:32:49.356Z,100770.38
2023-01-08T17:35:37.166Z,100780.72
2023-01-08T17:38:25.686Z,100785.56
2023-01-08T17:41:33.560Z,100774.50
2023-01-08T17:44:21.520Z,100756.81
2023-01-08T17:47:09.233Z,100759.25
2023-01-08T17:49:58.053Z,100779.59
2023-01-08T17:52:45.657Z,100770.63
2023-01-08T17:55:33.320Z,100774.19
2023-01-08T17:58:21.192Z,100785.84
2023-01-08T18:01:11.239Z,100750.34
2023-01-08T18:03:59.105Z,100797.31
2023-01-08T18:06:46.799Z,100786.94
2023-01-08T18:09:36.638Z,100797.03
2023-01-08T18:12:24.683Z,100797.59
2023-01-08T18:15:16.469Z,100797.59
2023-01-08T18:18:04.707Z,100801.94
2023-01-08T18:20:55.396Z,100799.44
2023-01-08T18:23:44.403Z,100804.03
2023-01-08T18:26:32.074Z,100795.63
2023-01-08T18:29:19.822Z,100794.78
2023-01-08T18:32:07.668Z,100802.69
2023-01-08T18:34:55.634Z,100762.78
2023-01-08T18:37:43.222Z,100799.16
2023-01-08T18:40:31.016Z,100738.34
2023-01-08T18:43:18.681Z,100792.38
2023-01-08T18:46:08.337Z,100800.47
2023-01-08T18:48:56.314Z,100798.63
2023-01-08T18:51:44.206Z,100805.47
2023-01-08T18:54:33.714Z,100754.19
2023-01-08T18:57:22.975Z,100813.88
2023-01-08T19:00:12.730Z,100807.09
2023-01-08T19:03:00.603Z,100814.16
2023-01-08T19:05:48.409Z,100768.28
2023-01-08T19:08:39.945Z,100812.81
2023-01-08T19:11:29.532Z,100810.34
2023-01-08T19:14:18.050Z,100794.91
2023-01-08T19:17:06.411Z,100816.03
2023-01-08T19:19:54.516Z,100802.22
2023-01-08T19:22:42.661Z,100812.28
2023-01-08T19:25:30.518Z,100821.22
2023-01-08T19:28:18.399Z,100820.41
2023-01-08T19:31:06.143Z,100816.31
2023-01-08T19:33:56.261Z,100791.06
2023-01-08T19:36:44.866Z,100820.94
2023-01-08T19:39:36.869Z,100812.19
2023-01-08T19:42:42.807Z,100774.72
2023-01-08T19:45:30.561Z,100812.97
2023-01-08T19:48:18.395Z,100802.59
2023-01-08T19:51:07.925Z,100803.97
2023-01-08T19:53:57.007Z,100804.56
2023-01-08T19:56:44.742Z,100778.53
2023-01-08T19:59:32.844Z,100809.53
2023-01-08T20:02:21.147Z,100809.81
2023-01-08T20:05:09.609Z,100817.41
2023-01-08T20:07:57.367Z,100807.31
2023-01-08T20:10:45.091Z,100754.59
2023-01-08T20:13:36.480Z,100809.81
2023-01-08T20:16:24.763Z,100782.94
2023-01-08T20:19:12.513Z,100813.34
2023-01-08T20:22:01.340Z,100813.81
2023-01-08T20:24:50.559Z,100811.66
2023-01-08T20:27:38.259Z,100807.56
2023-01-08T20:30:27.539Z,100809.19
2023-01-08T20:33:17.669Z,100763.59
2023-01-08T20:36:13.841Z,100805.47
2023-01-08T20:39:04.387Z,100798.88
2023-01-08T20:42:01.183Z,100809.22
2023-01-08T20:44:51.502Z,100800.50
2023-01-08T20:47:42.701Z,100790.13
2023-01-08T20:50:30.428Z,100773.56
2023-01-08T20:53:18.027Z,100789.03
2023-01-08T20:56:15.889Z,100801.84
2023-01-08T20:59:03.872Z,100795.00
2023-01-08T21:01:52.020Z,100783.09
2023-01-08T21:04:41.819Z,100807.50
2023-01-08T21:07:30.122Z,100786.84
2023-01-08T21:10:18.007Z,100799.66
2023-01-08T21:13:05.733Z,100805.81
2023-01-08T21:15:56.452Z,100758.56
2023-01-08T21:18:47.664Z,100765.69
2023-01-08T21:21:40.164Z,100785.75
2023-01-08T21:24:28.951Z,100787.94
2023-01-08T21:27:16.704Z,100775.72
2023-01-08T21:30:06.059Z,100766.22
2023-01-08T21:32:53.928Z,100787.41
2023-01-08T21:35:41.628Z,100788.53
2023-01-08T21:38:31.592Z,100799.66
2023-01-08T21:41:40.596Z,100782.00
2023-01-08T21:44:47.215Z,100750.47
2023-01-08T21:47:34.942Z,100787.13
2023-01-08T21:50:23.796Z,100786.13
2023-01-08T21:53:30.036Z,100785.56
2023-01-08T21:56:17.676Z,100769.00
2023-01-08T21:59:05.443Z,100767.09
2023-01-08T22:01:53.078Z,100769.22
2023-01-08T22:04:40.917Z,100765.97
2023-01-08T22:07:28.727Z,100730.97
2023-01-08T22:10:16.693Z,100762.72
2023-01-08T22:13:04.374Z,100731.28
2023-01-08T22:16:09.994Z,100716.69
2023-01-08T22:18:57.735Z,100759.03
2023-01-08T22:21:45.744Z,100756.34
2023-01-08T22:24:33.412Z,100764.75
2023-01-08T22:27:21.808Z,100753.06
2023-01-08T22:30:12.190Z,100768.81
2023-01-08T22:32:59.846Z,100747.69
2023-01-08T22:35:47.479Z,100755.81
2023-01-08T22:38:35.545Z,100721.31
2023-01-08T22:41:24.792Z,100696.06
2023-01-08T22:44:13.013Z,100738.13
2023-01-08T22:47:02.944Z,100735.75
2023-01-08T22:49:50.691Z,100740.09
2023-01-08T22:52:38.747Z,100733.53
2023-01-08T22:55:26.362Z,100745.47
2023-01-08T22:58:15.610Z,100737.34
2023-01-08T23:01:03.260Z,100710.75
2023-01-08T23:04:00.160Z,100749.56
2023-01-08T23:06:47.955Z,100744.66
2023-01-08T23:09:35.653Z,100706.94
2023-01-08T23:12:23.409Z,100740.06
2023-01-08T23:15:11.270Z,100733.53
2023-01-08T23:17:59.017Z,100742.47
2023-01-08T23:20:46.704Z,100728.31
2023-01-08T23:23:34.722Z,100691.69
2023-01-08T23:26:28.215Z,100723.50
2023-01-08T23:29:15.804Z,100721.03
2023-01-08T23:32:03.667Z,100708.78
2023-01-08T23:34:51.857Z,100706.31
2023-01-08T23:37:39.475Z,100678.09
2023-01-08T23:40:27.199Z,100715.31
2023-01-08T23:43:15.056Z,100711.75
2023-01-08T23:46:06.211Z,100702.00
2023-01-08T23:48:55.950Z,100710.94
2023-01-08T23:51:43.715Z,100690.59
2023-01-08T23:54:31.423Z,100693.28
2023-01-08T23:57:19.179Z,100692.75
